createdAt,value
2022-07-26T00:06:11.895Z,34.8665
2022-07-26T00:21:13.746Z,36.5602
2022-07-26T00:36:15.618Z,37.0282
2022-07-26T00:51:17.473Z,37.6522
2022-07-26T01:06:20.934Z,38.14
2022-07-26T01:21:25.810Z,38.6959
2022-07-26T01:36:27.629Z,39.5607
2022-07-26T01:51:29.461Z,42.1966
2022-07-26T02:06:31.294Z,40.3147
2022-07-26T02:21:33.630Z,39.2196
2022-07-26T02:36:35.472Z,38.8166
2022-07-26T02:51:37.302Z,38.7256
2022-07-26T03:06:39.115Z,39.0147
2022-07-26T03:21:40.911Z,38.3455
2022-07-26T03:36:42.767Z,38.6507
2022-07-26T03:51:44.587Z,38.7448
2022-07-26T04:06:46.427Z,38.2087
2022-07-26T04:21:48.297Z,38.1598
2022-07-26T04:36:50.145Z,37.7537
2022-07-26T04:51:56.188Z,37.5841
2022-07-26T05:07:00.865Z,37.6491
2022-07-26T05:22:02.688Z,36.8109
2022-07-26T05:37:04.511Z,36.307
2022-07-26T05:52:06.325Z,35.7511
2022-07-26T06:07:08.170Z,36.0662
2022-07-26T06:22:10.021Z,35.7183
2022-07-26T06:37:11.893Z,35.2732
2022-07-26T06:52:13.710Z,34.1453
2022-07-26T07:07:15.553Z,33.3975
2022-07-26T07:22:17.381Z,33.4204
2022-07-26T07:37:20.124Z,33.7844
2022-07-26T07:52:22.221Z,33.7968
2022-07-26T08:07:24.304Z,33.1957
2022-07-26T08:22:34.938Z,32.5265
2022-07-26T08:37:36.788Z,32.3247
2022-07-26T08:52:38.683Z,31.9737
2022-07-26T09:07:40.508Z,31.5379
2022-07-26T09:22:42.359Z,31.3138
2022-07-26T09:37:44.197Z,30.9659
2022-07-26T09:52:46.013Z,30.5629
2022-07-26T10:07:47.829Z,30.475
2022-07-26T10:22:49.708Z,30.3351
2022-07-26T10:37:51.547Z,28.915
2022-07-26T10:52:53.364Z,29.2041
2022-07-26T11:07:55.225Z,29.2264
2022-07-26T11:22:57.063Z,28.8302
2022-07-26T11:38:09.544Z,29.0512
2022-07-26T11:53:13.851Z,28.5442
2022-07-26T12:08:15.689Z,28.1443
2022-07-26T12:23:17.545Z,28.6055
2022-07-26T12:38:19.404Z,28.1084
2022-07-26T12:53:21.248Z,27.8874
2022-07-26T13:08:23.121Z,27.8224
2022-07-26T13:23:26.832Z,27.9976
2022-07-26T13:38:28.856Z,27.7246
2022-07-26T13:53:30.700Z,27.5166
2022-07-26T14:08:32.526Z,27.7797
2022-07-26T14:23:34.386Z,27.5748
2022-07-26T14:38:36.247Z,27.1365
2022-07-26T14:53:38.187Z,27.1557
2022-07-26T15:08:40.032Z,27.0065
2022-07-26T15:23:41.865Z,27.2436
2022-07-26T15:38:43.697Z,27.8416
2022-07-26T15:53:46.472Z,28.2155
2022-07-26T16:09:13.934Z,28.4755
2022-07-26T16:24:16.858Z,28.3195
2022-07-26T16:39:18.717Z,30.0516
2022-07-26T16:54:20.552Z,30.1265
2022-07-26T17:09:22.389Z,28.9243
2022-07-26T17:24:24.246Z,29.8665
2022-07-26T17:39:26.065Z,29.2883
2022-07-26T17:54:53.255Z,31.1535
2022-07-26T18:09:55.099Z,29.5873
2022-07-26T18:24:56.890Z,30.1073
2022-07-26T18:39:58.683Z,30.2732
2022-07-26T18:55:00.555Z,30.9653
2022-07-26T19:10:02.396Z,30.8031
2022-07-26T19:25:04.220Z,32.4702
2022-07-26T19:40:06.135Z,32.9778
2022-07-26T19:55:07.969Z,33.5789
2022-07-26T20:10:09.797Z,33.5467
2022-07-26T20:25:12.119Z,33.9559
2022-07-26T20:40:14.915Z,34.3849
2022-07-26T20:55:19.645Z,34.2456
2022-07-26T21:10:21.487Z,34.7916
2022-07-26T21:25:23.934Z,33.7906
2022-07-26T21:40:25.761Z,33.5628
2022-07-26T21:55:27.590Z,32.2727
2022-07-26T22:10:29.442Z,32.711
2022-07-26T22:25:31.301Z,31.7069
2022-07-26T22:40:33.131Z,31.0959
2022-07-26T22:55:34.985Z,31.4828
2022-07-26T23:10:36.830Z,31.7979
2022-07-26T23:25:38.657Z,32.243
2022-07-26T23:40:40.470Z,31.9118
2022-07-26T23:55:43.634Z,32.1161
